createdAt,value
2023-04-08T00:00:01.884Z,1015.96
2023-04-08T00:01:01.964Z,1015.99
2023-04-08T00:02:02.065Z,1015.95
2023-04-08T00:03:02.054Z,1015.98
2023-04-08T00:04:02.245Z,1015.99
2023-04-08T00:05:02.148Z,1015.97
2023-04-08T00:06:02.029Z,1015.99
2023-04-08T00:07:02.057Z,1015.97
2023-04-08T00:08:02.080Z,1015.94
2023-04-08T00:09:02.109Z,1015.96
2023-04-08T00:10:02.147Z,1015.97
2023-04-08T00:11:02.163Z,1015.96
2023-04-08T00:12:02.188Z,1015.94
2023-04-08T00:13:02.239Z,1015.96
2023-04-08T00:14:02.237Z,1015.97
2023-04-08T00:15:02.265Z,1015.98
2023-04-08T00:16:02.291Z,1016.00
2023-04-08T00:17:02.351Z,1016.01
2023-04-08T00:18:02.399Z,1016.00
2023-04-08T00:19:02.374Z,1016.04
2023-04-08T00:20:02.400Z,1016.01
2023-04-08T00:21:02.421Z,1016.00
2023-04-08T00:22:02.451Z,1016.02
2023-04-08T00:23:02.480Z,1015.98
2023-04-08T00:24:02.496Z,1016.00
2023-04-08T00:25:02.525Z,1015.99
2023-04-08T00:26:02.558Z,1015.98
2023-04-08T00:27:02.577Z,1016.05
2023-04-08T00:28:02.601Z,1016.02
2023-04-08T00:29:02.631Z,1016.01
2023-04-08T00:30:02.662Z,1016.04
2023-04-08T00:31:02.727Z,1016.02
2023-04-08T00:32:02.749Z,1016.02
2023-04-08T00:33:02.786Z,1015.98
2023-04-08T00:34:02.785Z,1016.05
2023-04-08T00:35:02.788Z,1015.99
2023-04-08T00:36:02.947Z,1016.04
2023-04-08T00:37:02.854Z,1016.04
2023-04-08T00:38:02.868Z,1016.06
2023-04-08T00:39:02.903Z,1016.09
2023-04-08T00:40:02.931Z,1016.10
2023-04-08T00:41:02.954Z,1016.10
2023-04-08T00:42:02.967Z,1016.04
2023-04-08T00:43:02.992Z,1016.13
2023-04-08T00:44:03.076Z,1016.06
2023-04-08T00:45:03.047Z,1016.06
2023-04-08T00:46:03.131Z,1016.02
2023-04-08T00:47:03.098Z,1016.06
2023-04-08T00:48:03.172Z,1016.08
2023-04-08T00:49:03.156Z,1016.09
2023-04-08T00:50:03.208Z,1016.05
2023-04-08T00:51:03.208Z,1016.07
2023-04-08T00:52:03.229Z,1016.05
2023-04-08T00:53:03.260Z,1016.08
2023-04-08T00:54:03.280Z,1016.07
2023-04-08T00:55:03.313Z,1016.08
2023-04-08T00:56:03.329Z,1016.11
2023-04-08T00:57:03.359Z,1016.07
2023-04-08T00:58:03.386Z,1016.13
2023-04-08T00:59:03.432Z,1016.12
2023-04-08T01:00:03.435Z,1016.07
2023-04-08T01:01:03.502Z,1016.07
2023-04-08T01:02:03.556Z,1016.09
2023-04-08T01:03:03.653Z,1016.11
2023-04-08T01:04:03.610Z,1016.12
2023-04-08T01:05:03.568Z,1016.08
2023-04-08T01:06:03.611Z,1016.14
2023-04-08T01:07:03.635Z,1016.18
2023-04-08T01:08:03.642Z,1016.14
2023-04-08T01:09:03.673Z,1016.14
2023-04-08T01:10:03.699Z,1016.15
2023-04-08T01:11:03.721Z,1016.15
2023-04-08T01:12:03.746Z,1016.15
2023-04-08T01:13:03.788Z,1016.16
2023-04-08T01:14:03.799Z,1016.15
2023-04-08T01:15:03.841Z,1016.19
2023-04-08T01:16:03.892Z,1016.18
2023-04-08T01:17:03.889Z,1016.14
2023-04-08T01:18:03.964Z,1016.16
2023-04-08T01:19:03.931Z,1016.16
2023-04-08T01:20:03.957Z,1016.12
2023-04-08T01:21:03.983Z,1016.16
2023-04-08T01:22:04.030Z,1016.13
2023-04-08T01:23:04.042Z,1016.15
2023-04-08T01:24:04.058Z,1016.13
2023-04-08T01:25:04.085Z,1016.16
2023-04-08T01:26:04.112Z,1016.11
2023-04-08T01:27:04.137Z,1016.11
2023-04-08T01:28:04.161Z,1016.10
2023-04-08T01:29:04.188Z,1016.13
2023-04-08T01:30:04.225Z,1016.12
2023-04-08T01:31:04.279Z,1016.11
2023-04-08T01:32:04.267Z,1016.14
2023-04-08T01:33:04.331Z,1016.18
2023-04-08T01:34:04.319Z,1016.15
2023-04-08T01:35:04.344Z,1016.16
2023-04-08T01:36:04.396Z,1016.16
2023-04-08T01:37:04.402Z,1016.14
2023-04-08T01:38:04.442Z,1016.14
2023-04-08T01:39:04.450Z,1016.14
2023-04-08T01:40:04.572Z,1016.11
2023-04-08T01:41:04.502Z,1016.17
2023-04-08T01:42:04.561Z,1016.16
2023-04-08T01:43:04.558Z,1016.11
2023-04-08T01:44:04.585Z,1016.13
2023-04-08T01:45:04.610Z,1016.15
2023-04-08T01:46:04.632Z,1016.17
2023-04-08T01:47:04.743Z,1016.18
2023-04-08T01:48:04.794Z,1016.21
2023-04-08T01:49:04.722Z,1016.17
2023-04-08T01:50:04.736Z,1016.15
2023-04-08T01:51:04.772Z,1016.17
2023-04-08T01:52:04.796Z,1016.21
2023-04-08T01:53:04.819Z,1016.17
2023-04-08T01:54:04.862Z,1016.14
2023-04-08T01:55:04.866Z,1016.19
2023-04-08T01:56:04.893Z,1016.17
2023-04-08T01:57:04.924Z,1016.19
2023-04-08T01:58:05.152Z,1016.20
2023-04-08T01:59:04.970Z,1016.18
2023-04-08T02:00:04.996Z,1016.24
2023-04-08T02:01:05.027Z,1016.20
2023-04-08T02:02:05.135Z,1016.23
2023-04-08T02:03:05.517Z,1016.27
2023-04-08T02:04:05.220Z,1016.26
2023-04-08T02:05:05.140Z,1016.29
2023-04-08T02:06:05.155Z,1016.29
2023-04-08T02:07:05.189Z,1016.30
2023-04-08T02:08:05.205Z,1016.28
2023-04-08T02:09:05.232Z,1016.24
2023-04-08T02:10:05.289Z,1016.29
2023-04-08T02:11:05.486Z,1016.26
2023-04-08T02:12:05.307Z,1016.27
2023-04-08T02:13:05.336Z,1016.29
2023-04-08T02:14:05.359Z,1016.29
2023-04-08T02:15:05.387Z,1016.25
2023-04-08T02:16:05.431Z,1016.27
2023-04-08T02:17:05.445Z,1016.24
2023-04-08T02:18:05.588Z,1016.26
2023-04-08T02:19:05.491Z,1016.31
2023-04-08T02:20:05.512Z,1016.29
2023-04-08T02:21:05.538Z,1016.31
2023-04-08T02:22:05.576Z,1016.34
2023-04-08T02:23:05.651Z,1016.32
2023-04-08T02:24:05.617Z,1016.32
2023-04-08T02:25:05.642Z,1016.28
2023-04-08T02:26:05.693Z,1016.30
2023-04-08T02:27:05.694Z,1016.27
2023-04-08T02:28:05.718Z,1016.30
2023-04-08T02:29:05.763Z,1016.27
2023-04-08T02:30:05.775Z,1016.31
2023-04-08T02:31:05.825Z,1016.27
2023-04-08T02:32:05.823Z,1016.27
2023-04-08T02:33:06.012Z,1016.25
2023-04-08T02:34:05.873Z,1016.29
2023-04-08T02:35:05.911Z,1016.29
2023-04-08T02:36:05.960Z,1016.31
2023-04-08T02:37:05.982Z,1016.30
2023-04-08T02:38:05.976Z,1016.37
2023-04-08T02:39:06.001Z,1016.34
2023-04-08T02:40:06.029Z,1016.32
2023-04-08T02:41:06.051Z,1016.37
2023-04-08T02:42:06.105Z,1016.35
2023-04-08T02:43:06.103Z,1016.35
2023-04-08T02:44:06.147Z,1016.34
2023-04-08T02:45:06.161Z,1016.36
2023-04-08T02:46:06.246Z,1016.33
2023-04-08T02:47:06.207Z,1016.36
2023-04-08T02:48:06.461Z,1016.39
2023-04-08T02:49:06.274Z,1016.36
2023-04-08T02:50:06.280Z,1016.38
2023-04-08T02:51:06.312Z,1016.39
2023-04-08T02:52:06.331Z,1016.37
2023-04-08T02:53:06.355Z,1016.38
2023-04-08T02:54:06.381Z,1016.41
2023-04-08T02:55:06.409Z,1016.40
2023-04-08T02:56:06.463Z,1016.36
2023-04-08T02:57:06.468Z,1016.42
2023-04-08T02:58:06.505Z,1016.37
2023-04-08T02:59:06.530Z,1016.36
2023-04-08T03:00:06.537Z,1016.41
2023-04-08T03:01:06.593Z,1016.40
2023-04-08T03:02:06.794Z,1016.43
2023-04-08T03:03:06.759Z,1016.39
2023-04-08T03:04:06.708Z,1016.43
2023-04-08T03:05:06.672Z,1016.44
2023-04-08T03:06:06.691Z,1016.40
2023-04-08T03:07:08.509Z,1016.43
2023-04-08T03:08:06.786Z,1016.40
2023-04-08T03:09:06.760Z,1016.41
2023-04-08T03:10:06.786Z,1016.38
2023-04-08T03:11:06.825Z,1016.45
2023-04-08T03:12:06.836Z,1016.41
2023-04-08T03:13:06.862Z,1016.39
2023-04-08T03:14:06.909Z,1016.40
2023-04-08T03:15:06.909Z,1016.44
2023-04-08T03:16:06.996Z,1016.41
2023-04-08T03:17:06.968Z,1016.42
2023-04-08T03:18:10.015Z,1016.43
2023-04-08T03:19:07.014Z,1016.40
2023-04-08T03:20:07.039Z,1016.37
2023-04-08T03:21:07.063Z,1016.39
2023-04-08T03:22:07.091Z,1016.37
2023-04-08T03:23:07.116Z,1016.41
2023-04-08T03:24:07.142Z,1016.41
2023-04-08T03:25:07.164Z,1016.42
2023-04-08T03:26:07.195Z,1016.46
2023-04-08T03:27:07.220Z,1016.43
2023-04-08T03:28:07.249Z,1016.44
2023-04-08T03:29:07.272Z,1016.43
2023-04-08T03:30:07.337Z,1016.47
2023-04-08T03:31:07.322Z,1016.46
2023-04-08T03:32:07.397Z,1016.46
2023-04-08T03:33:07.635Z,1016.47
2023-04-08T03:34:07.394Z,1016.48
2023-04-08T03:35:07.435Z,1016.47
2023-04-08T03:36:07.447Z,1016.49
2023-04-08T03:37:07.472Z,1016.49
2023-04-08T03:38:07.501Z,1016.52
2023-04-08T03:39:07.522Z,1016.54
2023-04-08T03:40:07.549Z,1016.55
2023-04-08T03:41:07.572Z,1016.53
2023-04-08T03:42:07.605Z,1016.55
2023-04-08T03:43:07.626Z,1016.50
2023-04-08T03:44:07.659Z,1016.53
2023-04-08T03:45:07.676Z,1016.49
2023-04-08T03:46:07.806Z,1016.50
2023-04-08T03:47:07.725Z,1016.58
2023-04-08T03:48:07.839Z,1016.53
2023-04-08T03:49:07.775Z,1016.53
2023-04-08T03:50:07.806Z,1016.53
2023-04-08T03:51:07.827Z,1016.50
2023-04-08T03:52:07.854Z,1016.58
2023-04-08T03:53:07.877Z,1016.52
2023-04-08T03:54:07.932Z,1016.50
2023-04-08T03:55:07.934Z,1016.48
2023-04-08T03:56:07.960Z,1016.45
2023-04-08T03:57:07.986Z,1016.52
2023-04-08T03:58:08.012Z,1016.52
2023-04-08T03:59:08.029Z,1016.48
2023-04-08T04:00:08.054Z,1016.53
2023-04-08T04:01:08.078Z,1016.51
2023-04-08T04:02:08.198Z,1016.50
2023-04-08T04:03:08.173Z,1016.51
2023-04-08T04:04:08.389Z,1016.54
2023-04-08T04:05:08.176Z,1016.56
2023-04-08T04:06:08.206Z,1016.60
2023-04-08T04:07:08.237Z,1016.52
2023-04-08T04:08:08.263Z,1016.58
2023-04-08T04:09:08.280Z,1016.55
2023-04-08T04:10:08.309Z,1016.61
2023-04-08T04:11:08.332Z,1016.57
2023-04-08T04:12:08.359Z,1016.54
2023-04-08T04:13:08.382Z,1016.51
2023-04-08T04:14:08.409Z,1016.61
2023-04-08T04:15:08.440Z,1016.55
2023-04-08T04:16:08.525Z,1016.61
2023-04-08T04:17:08.484Z,1016.52
2023-04-08T04:18:08.666Z,1016.59
2023-04-08T04:19:08.537Z,1016.58
2023-04-08T04:20:08.566Z,1016.60
2023-04-08T04:21:08.589Z,1016.58
2023-04-08T04:22:08.622Z,1016.57
2023-04-08T04:23:08.640Z,1016.66
2023-04-08T04:24:08.671Z,1016.67
2023-04-08T04:25:08.693Z,1016.67
2023-04-08T04:26:08.722Z,1016.66
2023-04-08T04:27:08.740Z,1016.66
2023-04-08T04:28:08.766Z,1016.71
2023-04-08T04:29:08.790Z,1016.68
2023-04-08T04:30:08.816Z,1016.74
2023-04-08T04:31:08.877Z,1016.71
2023-04-08T04:32:08.883Z,1016.69
2023-04-08T04:33:08.895Z,1016.67
2023-04-08T04:34:08.945Z,1016.63
2023-04-08T04:35:08.942Z,1016.66
2023-04-08T04:36:08.970Z,1016.67
2023-04-08T04:37:08.993Z,1016.67
2023-04-08T04:38:09.020Z,1016.75
2023-04-08T04:39:09.045Z,1016.74
2023-04-08T04:40:09.077Z,1016.75
2023-04-08T04:41:09.126Z,1016.79
2023-04-08T04:42:09.121Z,1016.76
2023-04-08T04:43:09.146Z,1016.77
2023-04-08T04:44:09.177Z,1016.80
2023-04-08T04:45:09.200Z,1016.77
2023-04-08T04:46:09.286Z,1016.71
2023-04-08T04:47:09.249Z,1016.75
2023-04-08T04:48:09.274Z,1016.76
2023-04-08T04:49:09.308Z,1016.75
2023-04-08T04:50:09.345Z,1016.78
2023-04-08T04:51:09.349Z,1016.77
2023-04-08T04:52:09.412Z,1016.79
2023-04-08T04:53:09.402Z,1016.74
2023-04-08T04:54:09.450Z,1016.77
2023-04-08T04:55:09.453Z,1016.78
2023-04-08T04:56:09.503Z,1016.75
2023-04-08T04:57:09.504Z,1016.74
2023-04-08T04:58:09.531Z,1016.78
2023-04-08T04:59:09.555Z,1016.80
2023-04-08T05:00:09.579Z,1016.80
2023-04-08T05:01:09.605Z,1016.79
2023-04-08T05:02:09.739Z,1016.74
2023-04-08T05:03:09.842Z,1016.75
2023-04-08T05:04:09.686Z,1016.75
2023-04-08T05:05:09.720Z,1016.78
2023-04-08T05:06:09.976Z,1016.75
2023-04-08T05:07:09.779Z,1016.77
2023-04-08T05:08:09.804Z,1016.79
2023-04-08T05:09:09.813Z,1016.77
2023-04-08T05:10:09.840Z,1016.82
2023-04-08T05:11:09.866Z,1016.84
2023-04-08T05:12:09.899Z,1016.82
2023-04-08T05:13:09.926Z,1016.89
2023-04-08T05:14:09.946Z,1016.86
2023-04-08T05:15:09.968Z,1016.87
2023-04-08T05:16:10.021Z,1016.87
2023-04-08T05:17:10.020Z,1016.88
2023-04-08T05:18:10.079Z,1016.91
2023-04-08T05:19:10.071Z,1016.92
2023-04-08T05:20:10.098Z,1016.94
2023-04-08T05:21:10.125Z,1016.91
2023-04-08T05:22:10.172Z,1016.90
2023-04-08T05:23:10.171Z,1016.96
2023-04-08T05:24:10.199Z,1016.95
2023-04-08T05:25:10.225Z,1017.00
2023-04-08T05:26:10.251Z,1016.97
2023-04-08T05:27:10.275Z,1016.93
2023-04-08T05:28:10.301Z,1016.96
2023-04-08T05:29:10.328Z,1017.02
2023-04-08T05:30:10.357Z,1016.98
2023-04-08T05:31:10.417Z,1017.00
2023-04-08T05:32:10.410Z,1016.99
2023-04-08T05:33:10.489Z,1017.06
2023-04-08T05:34:10.475Z,1016.98
2023-04-08T05:35:10.504Z,1016.99
2023-04-08T05:36:10.510Z,1016.98
2023-04-08T05:37:10.539Z,1017.00
2023-04-08T05:38:10.580Z,1016.97
2023-04-08T05:39:10.588Z,1017.02
2023-04-08T05:40:10.627Z,1017.06
2023-04-08T05:41:10.634Z,1017.11
2023-04-08T05:42:10.660Z,1017.09
2023-04-08T05:43:10.685Z,1017.15
2023-04-08T05:44:10.713Z,1017.13
2023-04-08T05:45:10.736Z,1017.11
2023-04-08T05:46:10.765Z,1017.18
2023-04-08T05:47:10.815Z,1017.20
2023-04-08T05:48:10.855Z,1017.24
2023-04-08T05:49:10.846Z,1017.22
2023-04-08T05:50:10.872Z,1017.25
2023-04-08T05:51:10.892Z,1017.24
2023-04-08T05:52:10.921Z,1017.26
2023-04-08T05:53:10.943Z,1017.28
2023-04-08T05:54:11.005Z,1017.32
2023-04-08T05:55:10.993Z,1017.31
2023-04-08T05:56:11.016Z,1017.28
2023-04-08T05:57:11.047Z,1017.30
2023-04-08T05:58:11.083Z,1017.33
2023-04-08T05:59:11.109Z,1017.36
2023-04-08T06:00:11.165Z,1017.36
2023-04-08T06:01:11.145Z,1017.37
2023-04-08T06:02:11.226Z,1017.39
2023-04-08T06:03:11.426Z,1017.42
2023-04-08T06:04:11.263Z,1017.39
2023-04-08T06:05:11.258Z,1017.40
2023-04-08T06:06:11.268Z,1017.39
2023-04-08T06:07:11.295Z,1017.43
2023-04-08T06:08:11.318Z,1017.44
2023-04-08T06:09:11.342Z,1017.42
2023-04-08T06:10:11.388Z,1017.43
2023-04-08T06:11:11.393Z,1017.42
2023-04-08T06:12:11.420Z,1017.38
2023-04-08T06:13:11.443Z,1017.38
2023-04-08T06:14:11.471Z,1017.41
2023-04-08T06:15:11.494Z,1017.39
2023-04-08T06:16:11.544Z,1017.44
2023-04-08T06:17:11.547Z,1017.42
2023-04-08T06:18:11.574Z,1017.45
2023-04-08T06:19:11.598Z,1017.45
2023-04-08T06:20:11.621Z,1017.46
2023-04-08T06:21:11.651Z,1017.46
2023-04-08T06:22:11.678Z,1017.46
2023-04-08T06:23:11.698Z,1017.53
2023-04-08T06:24:11.732Z,1017.52
2023-04-08T06:25:11.754Z,1017.51
2023-04-08T06:26:11.801Z,1017.54
2023-04-08T06:27:11.803Z,1017.54
2023-04-08T06:28:11.830Z,1017.57
2023-04-08T06:29:11.855Z,1017.57
2023-04-08T06:30:11.883Z,1017.63
2023-04-08T06:31:11.918Z,1017.60
2023-04-08T06:32:12.031Z,1017.61
2023-04-08T06:33:12.158Z,1017.57
2023-04-08T06:34:11.995Z,1017.60
2023-04-08T06:35:12.021Z,1017.55
2023-04-08T06:36:12.036Z,1017.56
2023-04-08T06:37:12.068Z,1017.57
2023-04-08T06:38:12.095Z,1017.57
2023-04-08T06:39:12.227Z,1017.53
2023-04-08T06:40:12.141Z,1017.55
2023-04-08T06:41:12.183Z,1017.52
2023-04-08T06:42:12.225Z,1017.53
2023-04-08T06:43:12.221Z,1017.57
2023-04-08T06:44:12.247Z,1017.57
2023-04-08T06:45:12.279Z,1017.59
2023-04-08T06:46:12.392Z,1017.57
2023-04-08T06:47:12.330Z,1017.61
2023-04-08T06:48:12.361Z,1017.65
2023-04-08T06:49:12.378Z,1017.64
2023-04-08T06:50:12.484Z,1017.62
2023-04-08T06:51:12.439Z,1017.60
2023-04-08T06:52:14.344Z,1017.63
2023-04-08T06:53:12.482Z,1017.68
2023-04-08T06:54:12.505Z,1017.68
2023-04-08T06:55:12.535Z,1017.67
2023-04-08T06:56:12.563Z,1017.71
2023-04-08T06:57:12.588Z,1017.68
2023-04-08T06:58:12.652Z,1017.71
2023-04-08T06:59:12.652Z,1017.73
2023-04-08T07:00:12.664Z,1017.75
2023-04-08T07:01:12.738Z,1017.80
2023-04-08T07:02:12.737Z,1017.78
2023-04-08T07:03:12.809Z,1017.77
2023-04-08T07:04:13.095Z,1017.81
2023-04-08T07:05:12.800Z,1017.75
2023-04-08T07:06:12.825Z,1017.77
2023-04-08T07:07:12.859Z,1017.82
2023-04-08T07:08:12.880Z,1017.78
2023-04-08T07:09:12.908Z,1017.78
2023-04-08T07:10:12.930Z,1017.79
2023-04-08T07:11:12.979Z,1017.75
2023-04-08T07:12:12.991Z,1017.78
2023-04-08T07:13:13.014Z,1017.77
2023-04-08T07:14:13.064Z,1017.79
2023-04-08T07:15:13.103Z,1017.76
2023-04-08T07:16:13.136Z,1017.78
2023-04-08T07:17:13.233Z,1017.77
2023-04-08T07:18:13.145Z,1017.80
2023-04-08T07:19:13.179Z,1017.79
2023-04-08T07:20:13.201Z,1017.79
2023-04-08T07:21:13.230Z,1017.84
2023-04-08T07:22:13.254Z,1017.84
2023-04-08T07:23:13.281Z,1017.84
2023-04-08T07:24:13.320Z,1017.71
2023-04-08T07:25:13.352Z,1017.81
2023-04-08T07:26:13.369Z,1017.84
2023-04-08T07:27:13.389Z,1017.89
2023-04-08T07:28:13.414Z,1017.86
2023-04-08T07:29:13.444Z,1017.88
2023-04-08T07:30:13.502Z,1017.88
2023-04-08T07:31:13.619Z,1017.85
2023-04-08T07:32:13.521Z,1017.87
2023-04-08T07:33:13.552Z,1017.88
2023-04-08T07:34:13.576Z,1017.81
2023-04-08T07:35:13.605Z,1017.92
2023-04-08T07:36:13.634Z,1017.94
2023-04-08T07:37:13.656Z,1017.93
2023-04-08T07:38:13.688Z,1017.97
2023-04-08T07:39:13.716Z,1017.97
2023-04-08T07:40:13.736Z,1018.01
2023-04-08T07:41:13.766Z,1018.04
2023-04-08T07:42:13.792Z,1018.04
2023-04-08T07:43:13.820Z,1018.05
2023-04-08T07:44:13.845Z,1018.05
2023-04-08T07:45:13.876Z,1018.06
2023-04-08T07:46:13.937Z,1018.07
2023-04-08T07:47:13.926Z,1018.08
2023-04-08T07:48:13.950Z,1018.10
2023-04-08T07:49:13.978Z,1018.03
2023-04-08T07:50:14.024Z,1018.02
2023-04-08T07:51:14.036Z,1018.02
2023-04-08T07:52:14.072Z,1018.06
2023-04-08T07:53:14.088Z,1018.05
2023-04-08T07:54:14.111Z,1018.03
2023-04-08T07:55:14.145Z,1018.08
2023-04-08T07:56:14.177Z,1018.07
2023-04-08T07:57:14.194Z,1018.08
2023-04-08T07:58:14.219Z,1018.12
2023-04-08T07:59:14.250Z,1018.11
2023-04-08T08:00:14.278Z,1018.10
2023-04-08T08:01:14.302Z,1018.13
2023-04-08T08:02:14.424Z,1018.13
2023-04-08T08:03:14.497Z,1018.13
2023-04-08T08:04:14.602Z,1018.16
2023-04-08T08:05:14.523Z,1018.21
2023-04-08T08:06:14.439Z,1018.21
2023-04-08T08:07:14.462Z,1018.20
2023-04-08T08:08:14.487Z,1018.18
2023-04-08T08:09:14.523Z,1018.19
2023-04-08T08:10:14.543Z,1018.17
2023-04-08T08:11:14.597Z,1018.20
2023-04-08T08:12:14.603Z,1018.21
2023-04-08T08:13:14.627Z,1018.28
2023-04-08T08:14:14.655Z,1018.29
2023-04-08T08:15:14.684Z,1018.31
2023-04-08T08:16:14.737Z,1018.31
2023-04-08T08:17:14.741Z,1018.34
2023-04-08T08:18:14.785Z,1018.40
2023-04-08T08:19:14.795Z,1018.34
2023-04-08T08:20:14.820Z,1018.36
2023-04-08T08:21:14.845Z,1018.36
2023-04-08T08:22:14.870Z,1018.37
2023-04-08T08:23:14.906Z,1018.34
2023-04-08T08:24:14.935Z,1018.36
2023-04-08T08:25:14.955Z,1018.39
2023-04-08T08:26:14.984Z,1018.36
2023-04-08T08:27:15.008Z,1018.42
2023-04-08T08:28:15.032Z,1018.42
2023-04-08T08:29:15.070Z,1018.34
2023-04-08T08:30:15.086Z,1018.41
2023-04-08T08:31:15.164Z,1018.39
2023-04-08T08:32:15.147Z,1018.42
2023-04-08T08:33:15.171Z,1018.41
2023-04-08T08:34:15.218Z,1018.45
2023-04-08T08:35:15.227Z,1018.41
2023-04-08T08:36:15.300Z,1018.45
2023-04-08T08:37:15.280Z,1018.44
2023-04-08T08:38:15.308Z,1018.45
2023-04-08T08:39:15.336Z,1018.41
2023-04-08T08:40:15.384Z,1018.43
2023-04-08T08:41:15.391Z,1018.50
2023-04-08T08:42:15.414Z,1018.48
2023-04-08T08:43:15.442Z,1018.50
2023-04-08T08:44:15.469Z,1018.52
2023-04-08T08:45:15.506Z,1018.54
2023-04-08T08:46:15.565Z,1018.51
2023-04-08T08:47:15.555Z,1018.49
2023-04-08T08:48:15.585Z,1018.57
2023-04-08T08:49:15.605Z,1018.56
2023-04-08T08:50:15.651Z,1018.59
2023-04-08T08:51:15.669Z,1018.51
2023-04-08T08:52:15.684Z,1018.56
2023-04-08T08:53:15.722Z,1018.51
2023-04-08T08:54:15.762Z,1018.47
2023-04-08T08:55:31.647Z,1018.47
2023-04-08T08:56:17.772Z,1018.50
2023-04-08T08:57:15.820Z,1018.52
2023-04-08T08:58:15.851Z,1018.56
2023-04-08T08:59:15.876Z,1018.52
2023-04-08T09:00:15.911Z,1018.55
2023-04-08T09:01:15.931Z,1018.55
2023-04-08T09:02:16.084Z,1018.58
2023-04-08T09:03:16.255Z,1018.53
2023-04-08T09:04:16.289Z,1018.49
2023-04-08T09:05:16.245Z,1018.51
2023-04-08T09:06:16.085Z,1018.52
2023-04-08T09:07:16.095Z,1018.49
2023-04-08T09:08:16.118Z,1018.47
2023-04-08T09:09:16.145Z,1018.51
2023-04-08T09:10:16.171Z,1018.49
2023-04-08T09:11:16.202Z,1018.53
2023-04-08T09:12:17.974Z,1018.58
2023-04-08T09:13:16.255Z,1018.54
2023-04-08T09:14:16.281Z,1018.60
2023-04-08T09:15:16.309Z,1018.57
2023-04-08T09:16:16.408Z,1018.62
2023-04-08T09:17:16.381Z,1018.64
2023-04-08T09:18:17.880Z,1018.66
2023-04-08T09:19:16.435Z,1018.66
2023-04-08T09:20:16.445Z,1018.69
2023-04-08T09:21:16.470Z,1018.63
2023-04-08T09:22:16.552Z,1018.64
2023-04-08T09:23:16.542Z,1018.66
2023-04-08T09:24:17.858Z,1018.65
2023-04-08T09:25:16.583Z,1018.63
2023-04-08T09:26:16.608Z,1018.58
2023-04-08T09:27:16.637Z,1018.68
2023-04-08T09:28:16.670Z,1018.67
2023-04-08T09:29:25.969Z,1018.70
2023-04-08T09:30:16.732Z,1018.72
2023-04-08T09:31:16.751Z,1018.71
2023-04-08T09:32:16.773Z,1018.70
2023-04-08T09:33:16.805Z,1018.71
2023-04-08T09:34:16.828Z,1018.72
2023-04-08T09:35:16.858Z,1018.75
2023-04-08T09:36:16.886Z,1018.76
2023-04-08T09:37:16.911Z,1018.74
2023-04-08T09:38:16.960Z,1018.82
2023-04-08T09:39:16.985Z,1018.78
2023-04-08T09:40:16.995Z,1018.80
2023-04-08T09:41:17.022Z,1018.74
2023-04-08T09:42:17.058Z,1018.73
2023-04-08T09:43:17.078Z,1018.71
2023-04-08T09:44:17.104Z,1018.76
2023-04-08T09:45:17.132Z,1018.82
2023-04-08T09:46:17.225Z,1018.82
2023-04-08T09:47:17.200Z,1018.77
2023-04-08T09:48:17.213Z,1018.76
2023-04-08T09:49:17.243Z,1018.82
2023-04-08T09:50:17.273Z,1018.71
2023-04-08T09:51:17.300Z,1018.77
2023-04-08T09:52:17.324Z,1018.75
2023-04-08T09:53:17.355Z,1018.77
2023-04-08T09:54:17.406Z,1018.77
2023-04-08T09:55:17.413Z,1018.81
2023-04-08T09:56:17.439Z,1018.80
2023-04-08T09:57:17.468Z,1018.79
2023-04-08T09:58:17.497Z,1018.80
2023-04-08T09:59:17.535Z,1018.78
2023-04-08T10:00:17.609Z,1018.75
2023-04-08T10:01:17.611Z,1018.74
2023-04-08T10:02:17.670Z,1018.69
2023-04-08T10:03:17.917Z,1018.74
2023-04-08T10:04:17.783Z,1018.74
2023-04-08T10:05:17.699Z,1018.77
2023-04-08T10:06:17.731Z,1018.70
2023-04-08T10:07:17.756Z,1018.75
2023-04-08T10:08:17.786Z,1018.85
2023-04-08T10:09:17.823Z,1018.67
2023-04-08T10:10:17.907Z,1018.63
2023-04-08T10:11:17.870Z,1018.62
2023-04-08T10:12:17.899Z,1018.59
2023-04-08T10:13:17.953Z,1018.61
2023-04-08T10:14:17.955Z,1018.63
2023-04-08T10:15:17.991Z,1018.61
2023-04-08T10:16:18.018Z,1018.65
2023-04-08T10:17:18.044Z,1018.63
2023-04-08T10:18:18.074Z,1018.64
2023-04-08T10:19:18.103Z,1018.63
2023-04-08T10:20:18.127Z,1018.63
2023-04-08T10:21:18.163Z,1018.69
2023-04-08T10:22:18.192Z,1018.66
2023-04-08T10:23:18.221Z,1018.65
2023-04-08T10:24:18.247Z,1018.64
2023-04-08T10:25:18.299Z,1018.60
2023-04-08T10:26:18.329Z,1018.66
2023-04-08T10:27:18.339Z,1018.65
2023-04-08T10:28:18.384Z,1018.68
2023-04-08T10:29:18.424Z,1018.67
2023-04-08T10:30:18.430Z,1018.66
2023-04-08T10:31:18.463Z,1018.68
2023-04-08T10:32:18.481Z,1018.69
2023-04-08T10:33:18.510Z,1018.65
2023-04-08T10:34:18.541Z,1018.67
2023-04-08T10:35:18.594Z,1018.65
2023-04-08T10:36:18.597Z,1018.63
2023-04-08T10:37:18.629Z,1018.63
2023-04-08T10:38:18.658Z,1018.71
2023-04-08T10:39:18.692Z,1018.66
2023-04-08T10:40:18.712Z,1018.68
2023-04-08T10:41:18.744Z,1018.70
2023-04-08T10:42:18.795Z,1018.73
2023-04-08T10:43:20.218Z,1018.73
2023-04-08T10:44:18.829Z,1018.73
2023-04-08T10:45:18.875Z,1018.72
2023-04-08T10:46:18.943Z,1018.66
2023-04-08T10:47:18.951Z,1018.67
2023-04-08T10:48:19.006Z,1018.67
2023-04-08T10:49:18.981Z,1018.76
2023-04-08T10:50:19.013Z,1018.72
2023-04-08T10:51:19.040Z,1018.76
2023-04-08T10:52:19.059Z,1018.73
2023-04-08T10:53:19.096Z,1018.70
2023-04-08T10:54:19.149Z,1018.73
2023-04-08T10:55:19.152Z,1018.68
2023-04-08T10:56:19.178Z,1018.60
2023-04-08T10:57:19.216Z,1018.57
2023-04-08T10:58:19.255Z,1018.51
2023-04-08T10:59:19.271Z,1018.55
2023-04-08T11:00:19.291Z,1018.53
2023-04-08T11:01:19.382Z,1018.55
2023-04-08T11:02:19.424Z,1018.55
2023-04-08T11:03:19.514Z,1018.52
2023-04-08T11:04:19.598Z,1018.55
2023-04-08T11:05:19.433Z,1018.52
2023-04-08T11:06:19.489Z,1018.56
2023-04-08T11:07:19.499Z,1018.56
2023-04-08T11:08:20.721Z,1018.54
2023-04-08T11:09:19.551Z,1018.57
2023-04-08T11:10:19.986Z,1018.51
2023-04-08T11:11:19.614Z,1018.53
2023-04-08T11:12:19.638Z,1018.50
2023-04-08T11:13:19.667Z,1018.53
2023-04-08T11:14:19.722Z,1018.55
2023-04-08T11:15:19.725Z,1018.51
2023-04-08T11:16:19.761Z,1018.53
2023-04-08T11:17:19.780Z,1018.49
2023-04-08T11:18:19.813Z,1018.48
2023-04-08T11:19:19.842Z,1018.48
2023-04-08T11:20:19.866Z,1018.48
2023-04-08T11:21:19.902Z,1018.51
2023-04-08T11:22:19.927Z,1018.53
2023-04-08T11:23:19.959Z,1018.49
2023-04-08T11:24:19.985Z,1018.42
2023-04-08T11:25:20.056Z,1018.43
2023-04-08T11:26:20.054Z,1018.42
2023-04-08T11:27:20.073Z,1018.42
2023-04-08T11:28:20.103Z,1018.39
2023-04-08T11:29:20.128Z,1018.40
2023-04-08T11:30:20.201Z,1018.41
2023-04-08T11:31:21.957Z,1018.39
2023-04-08T11:32:20.213Z,1018.40
2023-04-08T11:33:20.238Z,1018.36
2023-04-08T11:34:20.272Z,1018.42
2023-04-08T11:35:20.296Z,1018.37
2023-04-08T11:36:20.324Z,1018.36
2023-04-08T11:37:20.355Z,1018.34
2023-04-08T11:38:20.384Z,1018.37
2023-04-08T11:39:20.408Z,1018.33
2023-04-08T11:40:20.443Z,1018.37
2023-04-08T11:41:20.466Z,1018.32
2023-04-08T11:42:20.495Z,1018.36
2023-04-08T11:43:20.520Z,1018.42
2023-04-08T11:44:20.553Z,1018.41
2023-04-08T11:45:20.576Z,1018.39
2023-04-08T11:46:20.886Z,1018.38
2023-04-08T11:47:20.633Z,1018.39
2023-04-08T11:48:20.668Z,1018.41
2023-04-08T11:49:20.689Z,1018.45
2023-04-08T11:50:20.718Z,1018.40
2023-04-08T11:51:20.745Z,1018.39
2023-04-08T11:52:20.774Z,1018.39
2023-04-08T11:53:20.815Z,1018.37
2023-04-08T11:54:20.841Z,1018.44
2023-04-08T11:55:20.866Z,1018.36
2023-04-08T11:56:20.918Z,1018.40
2023-04-08T11:57:20.914Z,1018.38
2023-04-08T11:58:20.956Z,1018.44
2023-04-08T11:59:20.974Z,1018.41
2023-04-08T12:00:21.003Z,1018.42
2023-04-08T12:01:21.033Z,1018.42
2023-04-08T12:02:21.229Z,1018.45
2023-04-08T12:03:21.156Z,1018.38
2023-04-08T12:04:21.275Z,1018.33
2023-04-08T12:05:21.151Z,1018.33